createdAt,value
2022-08-25T00:00:59.235Z,445.60
2022-08-25T00:01:59.189Z,435.10
2022-08-25T00:02:59.248Z,446.90
2022-08-25T00:03:59.156Z,466.30
2022-08-25T00:04:59.165Z,477.30
2022-08-25T00:05:59.218Z,465.80
2022-08-25T00:07:02.950Z,451.50
2022-08-25T00:07:59.170Z,459.90
2022-08-25T00:08:59.152Z,463.10
2022-08-25T00:09:59.089Z,456.00
2022-08-25T00:11:03.127Z,459.30
2022-08-25T00:11:59.087Z,447.10
2022-08-25T00:12:59.058Z,460.00
2022-08-25T00:13:59.042Z,448.50
2022-08-25T00:14:59.053Z,466.70
2022-08-25T00:15:59.134Z,457.80
2022-08-25T00:16:59.033Z,471.70
2022-08-25T00:17:59.038Z,468.80
2022-08-25T00:18:59.008Z,436.40
2022-08-25T00:19:58.974Z,446.80
2022-08-25T00:20:59.014Z,443.70
2022-08-25T00:21:58.937Z,428.00
2022-08-25T00:22:58.939Z,412.00
2022-08-25T00:23:58.930Z,447.50
2022-08-25T00:24:58.947Z,472.80
2022-08-25T00:25:58.960Z,464.10
2022-08-25T00:26:58.902Z,471.30
2022-08-25T00:27:58.885Z,479.60
2022-08-25T00:29:01.722Z,483.70
2022-08-25T00:29:58.850Z,490.30
2022-08-25T00:30:58.961Z,476.20
2022-08-25T00:31:58.846Z,469.60
2022-08-25T00:32:58.821Z,483.00
2022-08-25T00:33:58.824Z,475.90
2022-08-25T00:34:58.818Z,455.30
2022-08-25T00:35:58.845Z,455.00
2022-08-25T00:36:58.774Z,457.20
2022-08-25T00:37:58.766Z,452.30
2022-08-25T00:38:58.778Z,453.60
2022-08-25T00:39:58.829Z,453.30
2022-08-25T00:40:58.783Z,467.00
2022-08-25T00:41:58.719Z,454.10
2022-08-25T00:42:58.741Z,460.40
2022-08-25T00:43:58.707Z,454.60
2022-08-25T00:45:00.482Z,468.70
2022-08-25T00:45:58.742Z,486.20
2022-08-25T00:46:58.656Z,469.00
2022-08-25T00:48:00.042Z,460.90
2022-08-25T00:48:58.642Z,468.90
2022-08-25T00:49:58.629Z,474.50
2022-08-25T00:50:58.657Z,472.20
2022-08-25T00:51:58.612Z,477.00
2022-08-25T00:52:58.594Z,468.10
2022-08-25T00:53:58.579Z,462.60
2022-08-25T00:55:01.907Z,460.40
2022-08-25T00:55:59.619Z,462.20
2022-08-25T00:56:58.561Z,467.20
2022-08-25T00:57:58.540Z,471.50
2022-08-25T00:58:58.531Z,468.60
2022-08-25T00:59:58.522Z,468.00
2022-08-25T01:00:58.537Z,471.40
2022-08-25T01:01:58.509Z,508.00
2022-08-25T01:02:58.514Z,522.60
2022-08-25T01:03:58.467Z,508.20
2022-08-25T01:04:58.464Z,501.70
2022-08-25T01:05:58.489Z,482.30
2022-08-25T01:06:58.450Z,487.90
2022-08-25T01:07:58.746Z,487.80
2022-08-25T01:08:58.437Z,489.10
2022-08-25T01:09:58.402Z,480.40
2022-08-25T01:10:58.425Z,466.70
2022-08-25T01:11:58.357Z,465.90
2022-08-25T01:12:58.361Z,470.30
2022-08-25T01:13:58.340Z,466.60
2022-08-25T01:14:58.335Z,461.50
2022-08-25T01:15:58.381Z,463.10
2022-08-25T01:16:58.324Z,469.70
2022-08-25T01:17:58.311Z,473.50
2022-08-25T01:18:58.298Z,475.40
2022-08-25T01:19:58.259Z,474.30
2022-08-25T01:20:58.313Z,482.30
2022-08-25T01:21:58.249Z,475.00
2022-08-25T01:22:58.244Z,484.80
2022-08-25T01:23:58.226Z,475.10
2022-08-25T01:24:58.226Z,477.60
2022-08-25T01:25:58.246Z,487.10
2022-08-25T01:26:58.193Z,494.50
2022-08-25T01:27:58.184Z,499.10
2022-08-25T01:28:58.163Z,492.00
2022-08-25T01:29:58.149Z,491.80
2022-08-25T01:30:58.198Z,494.80
2022-08-25T01:31:58.112Z,496.90
2022-08-25T01:32:58.121Z,505.50
2022-08-25T01:33:58.141Z,501.60
2022-08-25T01:34:58.111Z,499.60
2022-08-25T01:35:58.125Z,491.00
2022-08-25T01:36:58.076Z,483.70
2022-08-25T01:37:58.054Z,486.30
2022-08-25T01:38:58.048Z,489.90
2022-08-25T01:39:58.068Z,497.70
2022-08-25T01:40:58.089Z,504.50
2022-08-25T01:41:58.024Z,496.50
2022-08-25T01:42:57.994Z,498.30
2022-08-25T01:43:57.997Z,491.60
2022-08-25T01:44:57.991Z,494.10
2022-08-25T01:45:58.114Z,502.60
2022-08-25T01:46:57.964Z,490.20
2022-08-25T01:47:57.963Z,504.80
2022-08-25T01:48:57.946Z,499.00
2022-08-25T01:49:57.915Z,503.30
2022-08-25T01:50:57.957Z,497.40
2022-08-25T01:51:57.911Z,503.00
2022-08-25T01:52:57.873Z,503.40
2022-08-25T01:53:57.879Z,507.20
2022-08-25T01:54:57.874Z,507.60
2022-08-25T01:55:57.878Z,501.30
2022-08-25T01:56:57.849Z,500.00
2022-08-25T01:57:57.833Z,489.30
2022-08-25T01:58:57.833Z,479.00
2022-08-25T01:59:57.806Z,477.50
2022-08-25T02:00:57.895Z,474.10
2022-08-25T02:01:59.835Z,471.70
2022-08-25T02:02:57.844Z,488.10
2022-08-25T02:03:57.751Z,489.20
2022-08-25T02:04:57.735Z,499.20
2022-08-25T02:05:57.758Z,499.50
2022-08-25T02:06:57.731Z,497.50
2022-08-25T02:07:57.721Z,499.80
2022-08-25T02:08:57.709Z,504.70
2022-08-25T02:09:58.799Z,504.30
2022-08-25T02:10:58.721Z,500.30
2022-08-25T02:11:57.673Z,496.80
2022-08-25T02:12:57.642Z,502.90
2022-08-25T02:13:57.633Z,493.30
2022-08-25T02:14:57.656Z,504.70
2022-08-25T02:15:57.664Z,509.20
2022-08-25T02:16:57.770Z,506.10
2022-08-25T02:17:57.592Z,515.10
2022-08-25T02:18:57.615Z,510.00
2022-08-25T02:19:57.580Z,515.40
2022-08-25T02:20:57.595Z,509.80
2022-08-25T02:21:57.555Z,507.70
2022-08-25T02:22:57.551Z,503.80
2022-08-25T02:23:57.522Z,507.40
2022-08-25T02:24:57.529Z,505.90
2022-08-25T02:25:57.540Z,515.40
2022-08-25T02:26:57.504Z,507.80
2022-08-25T02:27:57.492Z,514.40
2022-08-25T02:28:57.483Z,512.80
2022-08-25T02:29:57.453Z,512.90
2022-08-25T02:31:01.362Z,520.80
2022-08-25T02:31:57.433Z,512.40
2022-08-25T02:32:57.432Z,504.00
2022-08-25T02:33:57.401Z,506.00
2022-08-25T02:34:57.391Z,514.70
2022-08-25T02:35:57.425Z,500.30
2022-08-25T02:36:57.373Z,511.90
2022-08-25T02:37:57.359Z,508.30
2022-08-25T02:38:57.359Z,503.20
2022-08-25T02:39:57.411Z,511.60
2022-08-25T02:40:57.368Z,507.40
2022-08-25T02:41:57.316Z,513.40
2022-08-25T02:42:57.317Z,501.10
2022-08-25T02:43:57.288Z,507.90
2022-08-25T02:44:57.290Z,507.50
2022-08-25T02:45:57.367Z,509.90
2022-08-25T02:46:57.259Z,510.10
2022-08-25T02:47:57.254Z,506.70
2022-08-25T02:48:57.258Z,418.60
2022-08-25T02:49:57.222Z,489.80
2022-08-25T02:50:57.259Z,501.50
2022-08-25T02:51:57.199Z,468.80
2022-08-25T02:52:57.191Z,485.80
2022-08-25T02:53:57.174Z,504.00
2022-08-25T02:54:57.174Z,490.50
2022-08-25T02:55:57.189Z,480.20
2022-08-25T02:56:57.151Z,419.30
2022-08-25T02:57:57.127Z,505.40
2022-08-25T02:58:57.130Z,517.10
2022-08-25T02:59:57.112Z,494.40
2022-08-25T03:00:57.190Z,495.50
2022-08-25T03:01:57.081Z,392.60
2022-08-25T03:02:57.077Z,512.00
2022-08-25T03:03:57.295Z,501.90
2022-08-25T03:04:57.135Z,486.30
2022-08-25T03:05:57.080Z,491.90
2022-08-25T03:06:57.029Z,504.10
2022-08-25T03:07:57.008Z,518.30
2022-08-25T03:08:56.991Z,504.70
2022-08-25T03:09:56.981Z,506.60
2022-08-25T03:10:57.014Z,496.10
2022-08-25T03:11:56.973Z,502.70
2022-08-25T03:12:56.958Z,444.20
2022-08-25T03:13:56.955Z,499.90
2022-08-25T03:14:56.943Z,487.70
2022-08-25T03:15:56.962Z,501.80
2022-08-25T03:16:56.998Z,503.10
2022-08-25T03:17:56.902Z,505.40
2022-08-25T03:18:56.908Z,392.20
2022-08-25T03:19:56.880Z,498.70
2022-08-25T03:20:56.906Z,498.70
2022-08-25T03:21:56.869Z,497.80
2022-08-25T03:22:56.856Z,501.00
2022-08-25T03:23:56.845Z,483.60
2022-08-25T03:24:56.831Z,502.40
2022-08-25T03:25:56.850Z,467.90
2022-08-25T03:26:56.809Z,493.60
2022-08-25T03:27:56.804Z,480.00
2022-08-25T03:28:56.795Z,482.00
2022-08-25T03:29:56.767Z,506.10
2022-08-25T03:30:56.790Z,498.90
2022-08-25T03:31:56.770Z,510.80
2022-08-25T03:32:56.748Z,465.10
2022-08-25T03:33:56.735Z,512.60
2022-08-25T03:34:56.709Z,501.30
2022-08-25T03:35:56.785Z,515.60
2022-08-25T03:36:56.720Z,413.20
2022-08-25T03:37:56.685Z,521.40
2022-08-25T03:38:56.666Z,513.80
2022-08-25T03:39:56.678Z,501.20
2022-08-25T03:40:56.681Z,515.10
2022-08-25T03:41:56.614Z,513.50
2022-08-25T03:42:56.625Z,502.50
2022-08-25T03:43:56.602Z,529.30
2022-08-25T03:44:56.603Z,515.40
2022-08-25T03:45:56.752Z,416.90
2022-08-25T03:46:56.580Z,504.20
2022-08-25T03:47:56.575Z,523.20
2022-08-25T03:48:56.558Z,434.20
2022-08-25T03:49:56.561Z,513.90
2022-08-25T03:50:56.572Z,519.90
2022-08-25T03:51:56.554Z,516.20
2022-08-25T03:52:56.521Z,517.30
2022-08-25T03:53:56.495Z,525.30
2022-08-25T03:54:56.501Z,467.40
2022-08-25T03:55:56.514Z,534.90
2022-08-25T03:56:56.476Z,529.20
2022-08-25T03:57:56.455Z,536.00
2022-08-25T03:58:56.450Z,527.70
2022-08-25T03:59:56.444Z,452.30
2022-08-25T04:00:56.517Z,540.30
2022-08-25T04:01:56.451Z,536.10
2022-08-25T04:02:56.400Z,530.00
2022-08-25T04:03:56.397Z,524.60
2022-08-25T04:04:56.379Z,416.70
2022-08-25T04:05:56.398Z,525.70
2022-08-25T04:06:56.362Z,515.30
2022-08-25T04:07:56.334Z,448.80
2022-08-25T04:08:56.346Z,497.30
2022-08-25T04:09:56.292Z,495.90
2022-08-25T04:10:56.317Z,493.00
2022-08-25T04:11:56.281Z,495.20
2022-08-25T04:12:56.281Z,463.30
2022-08-25T04:13:56.290Z,535.10
2022-08-25T04:14:56.260Z,540.60
2022-08-25T04:15:56.292Z,545.30
2022-08-25T04:16:56.288Z,550.50
2022-08-25T04:17:56.232Z,545.20
2022-08-25T04:18:56.215Z,534.30
2022-08-25T04:19:56.182Z,544.70
2022-08-25T04:20:56.239Z,550.50
2022-08-25T04:21:56.793Z,556.40
2022-08-25T04:22:56.182Z,548.00
2022-08-25T04:23:56.157Z,559.00
2022-08-25T04:24:56.141Z,568.80
2022-08-25T04:25:56.151Z,555.20
2022-08-25T04:26:56.118Z,562.10
2022-08-25T04:27:56.103Z,574.20
2022-08-25T04:28:56.095Z,535.40
2022-08-25T04:29:56.099Z,551.20
2022-08-25T04:30:56.105Z,530.40
2022-08-25T04:31:56.112Z,562.00
2022-08-25T04:32:56.058Z,505.10
2022-08-25T04:33:56.025Z,561.30
2022-08-25T04:34:56.044Z,558.70
2022-08-25T04:35:56.061Z,549.30
2022-08-25T04:36:56.013Z,543.50
2022-08-25T04:37:55.998Z,548.40
2022-08-25T04:38:56.011Z,547.40
2022-08-25T04:39:56.038Z,528.40
2022-08-25T04:40:55.991Z,539.60
2022-08-25T04:41:55.942Z,535.70
2022-08-25T04:42:55.914Z,234.50
2022-08-25T04:43:55.910Z,259.80
2022-08-25T04:44:55.932Z,279.80
2022-08-25T04:45:55.951Z,233.20
2022-08-25T04:46:55.886Z,214.70
2022-08-25T04:47:55.870Z,178.80
2022-08-25T04:48:55.854Z,194.00
2022-08-25T04:49:55.856Z,210.40
2022-08-25T04:50:55.884Z,235.00
2022-08-25T04:51:55.838Z,233.60
2022-08-25T04:52:55.808Z,188.20
2022-08-25T04:53:55.817Z,248.60
2022-08-25T04:54:55.802Z,256.10
2022-08-25T04:55:56.615Z,205.00
2022-08-25T04:56:58.434Z,235.70
2022-08-25T04:57:55.752Z,197.30
2022-08-25T04:58:55.772Z,180.20
2022-08-25T04:59:55.747Z,231.90
2022-08-25T05:00:55.807Z,186.50
2022-08-25T05:01:55.735Z,210.70
2022-08-25T05:02:55.685Z,206.00
2022-08-25T05:03:55.748Z,204.10
2022-08-25T05:04:55.680Z,227.30
2022-08-25T05:05:55.698Z,180.00
2022-08-25T05:06:55.650Z,183.10
2022-08-25T05:07:55.665Z,244.90
2022-08-25T05:08:55.638Z,210.10
2022-08-25T05:09:55.640Z,208.60
2022-08-25T05:10:55.629Z,195.20
2022-08-25T05:11:55.585Z,227.00
2022-08-25T05:12:55.568Z,205.00
2022-08-25T05:13:55.566Z,226.40
2022-08-25T05:14:55.558Z,179.80
2022-08-25T05:15:55.596Z,227.40
2022-08-25T05:16:55.538Z,202.20
2022-08-25T05:17:56.191Z,232.10
2022-08-25T05:18:55.509Z,149.90
2022-08-25T05:19:55.505Z,254.90
2022-08-25T05:20:55.542Z,260.70
2022-08-25T05:21:58.042Z,182.60
2022-08-25T05:22:55.479Z,179.00
2022-08-25T05:23:55.458Z,227.40
2022-08-25T05:24:55.481Z,171.80
2022-08-25T05:25:55.525Z,223.10
2022-08-25T05:26:55.458Z,150.20
2022-08-25T05:27:55.442Z,195.30
2022-08-25T05:28:55.397Z,158.80
2022-08-25T05:29:55.417Z,234.90
2022-08-25T05:30:55.424Z,238.10
2022-08-25T05:31:55.451Z,167.60
2022-08-25T05:32:55.368Z,211.30
2022-08-25T05:33:55.390Z,204.10
2022-08-25T05:34:55.344Z,209.10
2022-08-25T05:35:55.377Z,139.20
2022-08-25T05:36:55.330Z,242.80
2022-08-25T05:37:55.303Z,149.00
2022-08-25T05:38:55.307Z,196.50
2022-08-25T05:39:55.320Z,200.00
2022-08-25T05:40:55.303Z,188.70
2022-08-25T05:41:55.239Z,223.80
2022-08-25T05:42:55.235Z,168.80
2022-08-25T05:43:55.234Z,98.60
2022-08-25T05:44:55.277Z,188.40
2022-08-25T05:45:55.314Z,163.20
2022-08-25T05:46:55.183Z,227.20
2022-08-25T05:47:55.185Z,158.20
2022-08-25T05:48:55.181Z,272.00
2022-08-25T05:49:55.154Z,221.80
2022-08-25T05:50:55.185Z,269.30
2022-08-25T05:51:55.149Z,241.40
2022-08-25T05:52:55.133Z,212.70
2022-08-25T05:53:55.125Z,295.40
2022-08-25T05:54:55.088Z,249.50
2022-08-25T05:55:55.126Z,178.40
2022-08-25T05:56:55.078Z,196.20
2022-08-25T05:57:55.072Z,195.80
2022-08-25T05:58:55.070Z,134.30
2022-08-25T05:59:55.046Z,168.50
2022-08-25T06:00:55.099Z,163.60
2022-08-25T06:01:55.029Z,133.80
2022-08-25T06:02:55.019Z,160.90
2022-08-25T06:03:55.075Z,118.10
2022-08-25T06:04:54.997Z,149.60
2022-08-25T06:05:55.032Z,98.10
2022-08-25T06:06:55.043Z,150.90
2022-08-25T06:07:54.968Z,147.90
2022-08-25T06:08:54.935Z,136.20
2022-08-25T06:09:54.908Z,139.90
2022-08-25T06:10:54.974Z,135.50
2022-08-25T06:11:55.453Z,129.60
2022-08-25T06:12:54.915Z,124.80
2022-08-25T06:13:54.892Z,122.40
2022-08-25T06:14:54.888Z,107.10
2022-08-25T06:15:54.963Z,102.70
2022-08-25T06:16:54.863Z,97.60
2022-08-25T06:17:58.974Z,91.90
2022-08-25T06:18:55.836Z,97.70
2022-08-25T06:19:54.872Z,100.70
2022-08-25T06:20:54.818Z,101.50
2022-08-25T06:21:54.821Z,94.10
2022-08-25T06:22:54.758Z,68.60
2022-08-25T06:23:54.791Z,86.50
2022-08-25T06:24:54.766Z,79.80
2022-08-25T06:25:54.806Z,80.30
2022-08-25T06:26:54.751Z,71.70
2022-08-25T06:27:54.723Z,69.10
2022-08-25T06:28:54.716Z,63.80
2022-08-25T06:29:56.090Z,58.70
2022-08-25T06:30:54.753Z,50.30
2022-08-25T06:31:54.746Z,47.70
2022-08-25T06:32:54.667Z,37.70
2022-08-25T06:33:54.673Z,41.80
2022-08-25T06:34:54.659Z,67.30
2022-08-25T06:35:54.672Z,50.50
2022-08-25T06:36:54.640Z,51.90
2022-08-25T06:37:54.620Z,54.00
2022-08-25T06:38:54.613Z,48.40
2022-08-25T06:39:54.628Z,44.40
2022-08-25T06:40:54.593Z,42.10
2022-08-25T06:41:54.559Z,28.80
2022-08-25T06:42:54.545Z,29.00
2022-08-25T06:43:57.538Z,29.60
2022-08-25T06:44:55.503Z,33.00
2022-08-25T06:45:54.590Z,38.50
2022-08-25T06:46:54.555Z,37.40
2022-08-25T06:47:54.498Z,48.10
2022-08-25T06:48:54.479Z,57.60
2022-08-25T06:49:54.481Z,56.80
2022-08-25T06:50:54.505Z,51.50
2022-08-25T06:51:54.458Z,42.90
2022-08-25T06:52:54.421Z,47.60
2022-08-25T06:53:54.439Z,41.30
2022-08-25T06:54:54.435Z,38.90
2022-08-25T06:55:54.470Z,24.00
2022-08-25T06:56:54.427Z,18.20
2022-08-25T06:58:03.579Z,19.40
2022-08-25T06:58:55.384Z,21.10
2022-08-25T06:59:54.359Z,20.30
2022-08-25T07:00:54.490Z,21.40
2022-08-25T07:01:54.395Z,21.40
2022-08-25T07:02:54.343Z,20.40
2022-08-25T07:03:54.316Z,19.90
2022-08-25T07:04:54.298Z,17.40
2022-08-25T07:05:54.336Z,16.60
2022-08-25T07:06:54.275Z,17.70
2022-08-25T07:07:54.278Z,17.20
2022-08-25T07:08:54.272Z,15.60
2022-08-25T07:09:54.266Z,15.10
2022-08-25T07:10:54.260Z,15.80
2022-08-25T07:11:54.230Z,17.60
2022-08-25T07:12:54.178Z,16.30
2022-08-25T07:13:54.200Z,14.70
2022-08-25T07:15:10.079Z,12.80
2022-08-25T07:15:55.292Z,13.80
2022-08-25T07:16:54.182Z,18.10
2022-08-25T07:17:54.166Z,19.60
2022-08-25T07:18:54.156Z,18.20
2022-08-25T07:19:57.402Z,17.00
2022-08-25T07:20:54.159Z,15.90
2022-08-25T07:21:54.165Z,14.70
2022-08-25T07:22:54.113Z,14.40
2022-08-25T07:23:54.091Z,14.70
2022-08-25T07:24:54.077Z,14.30
2022-08-25T07:25:54.102Z,13.60
2022-08-25T07:26:54.044Z,14.30
2022-08-25T07:27:58.607Z,14.50
2022-08-25T07:28:55.028Z,15.60
2022-08-25T07:29:54.058Z,15.20
2022-08-25T07:30:54.041Z,15.70
2022-08-25T07:31:54.052Z,15.00
2022-08-25T07:32:55.331Z,15.30
2022-08-25T07:33:54.010Z,16.80
2022-08-25T07:34:54.001Z,16.70
2022-08-25T07:35:54.000Z,12.90
2022-08-25T07:36:53.989Z,12.00
2022-08-25T07:37:53.964Z,10.50
2022-08-25T07:38:53.926Z,9.90
2022-08-25T07:39:53.980Z,10.60
2022-08-25T07:40:53.936Z,11.40
2022-08-25T07:41:53.872Z,11.40
2022-08-25T07:42:53.856Z,12.70
2022-08-25T07:43:53.899Z,14.30
2022-08-25T07:44:53.864Z,15.30
2022-08-25T07:45:53.887Z,13.90
2022-08-25T07:46:53.927Z,15.00
2022-08-25T07:47:53.863Z,15.00
2022-08-25T07:48:53.838Z,14.30
2022-08-25T07:49:53.816Z,13.70
2022-08-25T07:50:53.852Z,12.70
2022-08-25T07:52:05.680Z,12.90
2022-08-25T07:52:55.419Z,11.80
2022-08-25T07:53:53.765Z,11.00
2022-08-25T07:54:53.738Z,11.10
2022-08-25T07:55:53.960Z,10.10
2022-08-25T07:56:53.718Z,10.20
2022-08-25T07:57:56.001Z,9.20
2022-08-25T07:58:53.706Z,9.00
2022-08-25T07:59:53.682Z,8.80
2022-08-25T08:00:53.706Z,8.60
2022-08-25T08:01:53.729Z,9.10
2022-08-25T08:02:53.733Z,9.90
2022-08-25T08:03:53.672Z,9.60
2022-08-25T08:04:53.641Z,9.10
2022-08-25T08:05:53.638Z,8.50
2022-08-25T08:06:53.581Z,8.60
2022-08-25T08:07:53.584Z,8.60
2022-08-25T08:08:54.747Z,9.00
2022-08-25T08:10:11.926Z,8.90
2022-08-25T08:11:04.366Z,9.10
2022-08-25T08:11:54.587Z,9.10
2022-08-25T08:12:53.557Z,9.50
2022-08-25T08:13:53.566Z,8.90
2022-08-25T08:14:53.532Z,8.50
2022-08-25T08:15:53.568Z,8.40
2022-08-25T08:16:53.494Z,8.10
2022-08-25T08:17:53.476Z,8.60
2022-08-25T08:18:53.475Z,8.50
2022-08-25T08:19:53.443Z,9.20
2022-08-25T08:20:53.494Z,9.10
2022-08-25T08:21:54.314Z,9.20
2022-08-25T08:22:53.477Z,9.20
2022-08-25T08:23:58.118Z,9.20
2022-08-25T08:24:56.177Z,9.10
2022-08-25T08:25:53.425Z,9.20
2022-08-25T08:26:58.716Z,8.50
2022-08-25T08:27:54.930Z,8.90
2022-08-25T08:28:53.372Z,9.00
2022-08-25T08:29:53.378Z,8.60
2022-08-25T08:30:54.051Z,9.00
2022-08-25T08:31:53.452Z,8.90
2022-08-25T08:33:09.164Z,9.00
2022-08-25T08:33:54.303Z,8.80
2022-08-25T08:34:53.311Z,9.00
2022-08-25T08:35:53.327Z,8.90
2022-08-25T08:36:53.295Z,9.10
2022-08-25T08:37:53.958Z,9.60
2022-08-25T08:38:53.271Z,9.60
2022-08-25T08:39:53.293Z,10.50
2022-08-25T08:40:53.623Z,10.00
2022-08-25T08:42:11.295Z,10.40
2022-08-25T08:42:54.182Z,9.40
2022-08-25T08:43:53.250Z,9.70
2022-08-25T08:44:53.187Z,10.40
2022-08-25T08:45:53.747Z,9.90
2022-08-25T08:46:53.250Z,9.80
2022-08-25T08:47:53.158Z,10.00
2022-08-25T08:48:53.149Z,9.90
2022-08-25T08:49:53.166Z,10.00
2022-08-25T08:50:53.186Z,9.50
2022-08-25T08:51:53.132Z,8.90
2022-08-25T08:52:53.094Z,9.00
2022-08-25T08:53:53.102Z,9.40
2022-08-25T08:54:53.105Z,9.40
2022-08-25T08:55:53.123Z,10.00
2022-08-25T08:56:53.069Z,9.60
2022-08-25T08:57:53.084Z,9.80
2022-08-25T08:58:53.028Z,9.80
2022-08-25T08:59:53.056Z,10.00
2022-08-25T09:00:53.083Z,9.30
2022-08-25T09:01:54.192Z,9.60
2022-08-25T09:02:53.040Z,10.40
2022-08-25T09:03:55.139Z,10.10
2022-08-25T09:04:52.978Z,9.80
2022-08-25T09:05:53.022Z,9.90
2022-08-25T09:06:52.965Z,10.50
2022-08-25T09:07:54.832Z,10.50
2022-08-25T09:08:52.947Z,10.90
2022-08-25T09:09:52.937Z,11.10
2022-08-25T09:10:54.291Z,11.10
2022-08-25T09:11:52.903Z,9.70
2022-08-25T09:13:52.894Z,10.30
2022-08-25T09:14:54.036Z,9.20
2022-08-25T09:15:54.639Z,9.70
2022-08-25T09:16:52.843Z,10.20
2022-08-25T09:17:54.421Z,9.90
2022-08-25T09:18:52.811Z,10.00
2022-08-25T09:19:52.833Z,10.20
2022-08-25T09:20:52.841Z,10.20
2022-08-25T09:21:52.802Z,10.20
2022-08-25T09:22:53.820Z,10.40
2022-08-25T09:23:52.750Z,10.60
2022-08-25T09:24:52.751Z,9.90
2022-08-25T09:25:54.093Z,9.70
2022-08-25T09:26:52.751Z,10.40
2022-08-25T09:27:52.718Z,9.90
2022-08-25T09:28:52.746Z,9.20
2022-08-25T09:29:52.706Z,9.60
2022-08-25T09:30:52.802Z,9.50
2022-08-25T09:31:52.682Z,9.20
2022-08-25T09:32:52.781Z,9.10
2022-08-25T09:33:52.646Z,9.70
2022-08-25T09:34:52.659Z,8.70
2022-08-25T09:35:53.699Z,9.40
2022-08-25T09:36:52.649Z,8.70
2022-08-25T09:37:52.637Z,8.70
2022-08-25T09:38:52.618Z,9.60
2022-08-25T09:39:52.654Z,9.90
2022-08-25T09:40:52.633Z,9.00
2022-08-25T09:41:52.610Z,8.90
2022-08-25T09:42:57.701Z,9.00
2022-08-25T09:43:53.541Z,9.50
2022-08-25T09:44:52.547Z,9.90
2022-08-25T09:45:52.593Z,10.10
2022-08-25T09:46:52.522Z,9.90
2022-08-25T09:47:52.530Z,10.20
2022-08-25T09:48:52.519Z,10.10
2022-08-25T09:49:52.527Z,10.20
2022-08-25T09:50:52.533Z,10.70
2022-08-25T09:51:52.743Z,10.60
2022-08-25T09:52:53.552Z,11.30
2022-08-25T09:53:52.461Z,12.00
2022-08-25T09:54:52.432Z,12.30
2022-08-25T09:55:52.465Z,12.00
2022-08-25T09:56:53.424Z,11.70
2022-08-25T09:57:53.021Z,11.30
2022-08-25T09:58:52.390Z,10.90
2022-08-25T09:59:53.709Z,10.60
2022-08-25T10:00:53.406Z,10.80
2022-08-25T10:01:52.421Z,10.80
2022-08-25T10:02:52.373Z,11.20
2022-08-25T10:03:52.367Z,11.30
2022-08-25T10:04:52.455Z,11.20
2022-08-25T10:05:56.267Z,10.90
2022-08-25T10:06:52.330Z,11.50
2022-08-25T10:07:52.285Z,11.90
2022-08-25T10:08:52.320Z,12.20
2022-08-25T10:09:52.269Z,12.50
2022-08-25T10:10:52.314Z,12.20
2022-08-25T10:11:52.230Z,11.70
2022-08-25T10:12:53.244Z,11.40
2022-08-25T10:13:52.209Z,11.20
2022-08-25T10:14:52.225Z,12.00
2022-08-25T10:15:52.263Z,12.20
2022-08-25T10:16:52.206Z,12.50
2022-08-25T10:17:52.201Z,13.10
2022-08-25T10:18:52.165Z,12.80
2022-08-25T10:19:52.190Z,13.30
2022-08-25T10:20:52.230Z,13.90
2022-08-25T10:21:52.156Z,13.70
2022-08-25T10:22:52.150Z,14.00
2022-08-25T10:23:52.160Z,13.60
2022-08-25T10:24:52.132Z,13.70
2022-08-25T10:25:59.025Z,13.30
2022-08-25T10:26:53.124Z,13.40
2022-08-25T10:27:52.085Z,14.00
2022-08-25T10:28:52.088Z,14.00
2022-08-25T10:29:52.082Z,14.00
2022-08-25T10:30:52.138Z,13.50
2022-08-25T10:31:52.085Z,13.90
2022-08-25T10:32:52.045Z,13.80
2022-08-25T10:33:52.006Z,14.00
2022-08-25T10:34:52.623Z,13.70
2022-08-25T10:35:52.043Z,13.60
2022-08-25T10:36:52.022Z,13.90
2022-08-25T10:37:51.995Z,14.30
2022-08-25T10:38:52.006Z,15.10
2022-08-25T10:39:55.543Z,15.20
2022-08-25T10:40:52.027Z,15.00
2022-08-25T10:41:53.448Z,15.50
2022-08-25T10:42:51.942Z,16.10
2022-08-25T10:43:51.909Z,16.40
2022-08-25T10:44:51.906Z,16.10
2022-08-25T10:45:52.536Z,16.10
2022-08-25T10:46:51.900Z,16.50
2022-08-25T10:47:51.871Z,16.00
2022-08-25T10:48:51.865Z,16.30
2022-08-25T10:49:51.868Z,15.80
2022-08-25T10:50:51.908Z,15.90
2022-08-25T10:51:51.839Z,14.00
2022-08-25T10:52:51.835Z,13.30
2022-08-25T10:53:51.823Z,13.50
2022-08-25T10:54:51.801Z,13.00
2022-08-25T10:55:51.823Z,13.00
2022-08-25T10:56:53.209Z,12.70
2022-08-25T10:57:51.797Z,12.90
2022-08-25T10:58:51.768Z,12.50
2022-08-25T10:59:51.800Z,13.30
2022-08-25T11:00:51.739Z,13.20
2022-08-25T11:01:53.602Z,12.90
2022-08-25T11:02:51.735Z,12.80
2022-08-25T11:03:51.728Z,13.00
2022-08-25T11:04:51.806Z,13.80
2022-08-25T11:05:51.730Z,14.50
2022-08-25T11:06:54.760Z,15.10
2022-08-25T11:07:51.671Z,14.80
2022-08-25T11:08:51.682Z,15.10
2022-08-25T11:09:51.661Z,15.50
2022-08-25T11:10:52.046Z,13.80
2022-08-25T11:11:51.649Z,12.90
2022-08-25T11:12:51.618Z,12.70
2022-08-25T11:13:51.631Z,11.50
2022-08-25T11:14:51.601Z,12.20
2022-08-25T11:16:15.550Z,13.30
2022-08-25T11:16:52.649Z,13.50
2022-08-25T11:17:51.600Z,13.10
2022-08-25T11:18:51.585Z,14.00
2022-08-25T11:19:51.557Z,12.90
2022-08-25T11:20:51.584Z,12.90
2022-08-25T11:21:51.545Z,13.10
2022-08-25T11:22:51.522Z,12.30
2022-08-25T11:23:51.521Z,10.90
2022-08-25T11:24:51.514Z,10.20
2022-08-25T11:25:51.528Z,9.60
2022-08-25T11:26:51.505Z,9.60
2022-08-25T11:27:51.465Z,9.50
2022-08-25T11:28:51.476Z,9.50
2022-08-25T11:29:51.444Z,10.20
2022-08-25T11:30:51.510Z,9.60
2022-08-25T11:31:53.605Z,9.50
2022-08-25T11:32:51.437Z,10.60
2022-08-25T11:33:51.423Z,10.00
2022-08-25T11:34:51.401Z,9.80
2022-08-25T11:35:51.445Z,10.60
2022-08-25T11:36:51.399Z,10.00
2022-08-25T11:37:51.365Z,12.00
2022-08-25T11:38:51.368Z,10.90
2022-08-25T11:39:51.388Z,11.80
2022-08-25T11:40:51.371Z,11.00
2022-08-25T11:41:51.325Z,11.10
2022-08-25T11:42:51.328Z,10.80
2022-08-25T11:43:51.309Z,10.90
2022-08-25T11:44:53.216Z,11.40
2022-08-25T11:45:54.487Z,12.00
2022-08-25T11:46:51.257Z,12.10
2022-08-25T11:47:51.280Z,10.60
2022-08-25T11:48:51.265Z,12.00
2022-08-25T11:49:51.248Z,11.50
2022-08-25T11:50:51.269Z,10.10
2022-08-25T11:51:51.216Z,10.80
2022-08-25T11:52:51.223Z,12.10
2022-08-25T11:53:51.194Z,9.60
2022-08-25T11:54:51.187Z,9.80
2022-08-25T11:55:51.220Z,10.20
2022-08-25T11:56:51.178Z,11.50
2022-08-25T11:57:53.387Z,11.60
2022-08-25T11:58:51.153Z,11.40
2022-08-25T11:59:51.139Z,11.90
2022-08-25T12:00:51.153Z,12.10
2022-08-25T12:01:51.108Z,12.50
2022-08-25T12:02:51.097Z,13.10
2022-08-25T12:03:51.227Z,13.40
2022-08-25T12:04:51.179Z,13.80
2022-08-25T12:05:51.105Z,13.70
2022-08-25T12:06:52.820Z,13.20
2022-08-25T12:07:51.041Z,13.40
2022-08-25T12:08:51.052Z,13.50
2022-08-25T12:09:51.040Z,13.40
2022-08-25T12:10:51.048Z,13.60
2022-08-25T12:11:51.015Z,13.90
2022-08-25T12:12:51.027Z,14.10
2022-08-25T12:13:50.977Z,13.50
2022-08-25T12:14:50.969Z,13.90
2022-08-25T12:15:51.007Z,13.00
2022-08-25T12:16:50.977Z,13.40
2022-08-25T12:17:50.950Z,13.00
2022-08-25T12:18:50.949Z,13.10
2022-08-25T12:19:50.944Z,12.90
2022-08-25T12:20:50.946Z,12.90
2022-08-25T12:21:50.908Z,13.60
2022-08-25T12:22:50.915Z,13.20
2022-08-25T12:23:53.249Z,13.30
2022-08-25T12:24:50.892Z,13.00
2022-08-25T12:25:50.925Z,13.20
2022-08-25T12:26:50.866Z,13.50
2022-08-25T12:27:50.849Z,12.80
2022-08-25T12:28:50.879Z,13.10
2022-08-25T12:29:50.858Z,12.90
2022-08-25T12:30:50.888Z,12.80
2022-08-25T12:31:50.798Z,12.90
2022-08-25T12:32:50.821Z,13.20
2022-08-25T12:33:50.793Z,13.80
2022-08-25T12:34:50.789Z,12.80
2022-08-25T12:35:50.803Z,12.80
2022-08-25T12:36:50.744Z,12.70
2022-08-25T12:37:50.752Z,12.80
2022-08-25T12:38:52.081Z,12.40
2022-08-25T12:39:50.871Z,12.70
2022-08-25T12:40:50.717Z,12.60
2022-08-25T12:41:50.716Z,12.60
2022-08-25T12:42:50.701Z,12.50
2022-08-25T12:43:50.685Z,12.60
2022-08-25T12:44:50.702Z,12.70